sensor_id;sensor_type;location;lat;lon;timestamp;pressure;altitude;pressure_sealevel;temperature;humidity
55079;BME280;55187;49.496;6.010;2022-08-01T00:02:17;97629.75;;;15.29;100.00
55079;BME280;55187;49.496;6.010;2022-08-01T00:04:44;97628.66;;;15.12;100.00
55079;BME280;55187;49.496;6.010;2022-08-01T00:07:10;97622.28;;;15.13;100.00
55079;BME280;55187;49.496;6.010;2022-08-01T00:09:36;97627.25;;;15.09;100.00
55079;BME280;55187;49.496;6.010;2022-08-01T00:12:03;97632.19;;;15.06;100.00
55079;BME280;55187;49.496;6.010;2022-08-01T00:14:30;97625.44;;;15.03;100.00
55079;BME280;55187;49.496;6.010;2022-08-01T00:16:57;97634.63;;;15.07;100.00
55079;BME280;55187;49.496;6.010;2022-08-01T00:19:23;97631.41;;;14.99;100.00
55079;BME280;55187;49.496;6.010;2022-08-01T00:21:50;97622.38;;;15.00;100.00
55079;BME280;55187;49.496;6.010;2022-08-01T00:24:16;97628.94;;;14.97;100.00
55079;BME280;55187;49.496;6.010;2022-08-01T00:26:42;97627.53;;;14.95;100.00
55079;BME280;55187;49.496;6.010;2022-08-01T00:29:08;97629.78;;;14.98;100.00
55079;BME280;55187;49.496;6.010;2022-08-01T00:31:35;97632.03;;;14.94;100.00
55079;BME280;55187;49.496;6.010;2022-08-01T00:34:04;97624.84;;;14.95;100.00
55079;BME280;55187;49.496;6.010;2022-08-01T00:36:30;97625.47;;;14.97;100.00
55079;BME280;55187;49.496;6.010;2022-08-01T00:38:57;97627.13;;;14.98;100.00
55079;BME280;55187;49.496;6.010;2022-08-01T00:41:23;97625.66;;;14.95;100.00
55079;BME280;55187;49.496;6.010;2022-08-01T00:43:49;97614.97;;;15.02;100.00
55079;BME280;55187;49.496;6.010;2022-08-01T00:46:16;97617.03;;;15.00;100.00
55079;BME280;55187;49.496;6.010;2022-08-01T00:48:42;97621.19;;;14.96;100.00
55079;BME280;55187;49.496;6.010;2022-08-01T00:51:08;97615.44;;;14.92;100.00
55079;BME280;55187;49.496;6.010;2022-08-01T00:53:35;97614.84;;;14.90;100.00
55079;BME280;55187;49.496;6.010;2022-08-01T00:56:02;97614.84;;;14.90;100.00
55079;BME280;55187;49.496;6.010;2022-08-01T00:58:29;97615.47;;;14.85;100.00
55079;BME280;55187;49.496;6.010;2022-08-01T01:00:59;97609.97;;;14.80;100.00
55079;BME280;55187;49.496;6.010;2022-08-01T01:03:25;97619.03;;;14.79;100.00
55079;BME280;55187;49.496;6.010;2022-08-01T01:11:31;97614.97;;;14.70;100.00
55079;BME280;55187;49.496;6.010;2022-08-01T01:14:04;97616.78;;;14.69;100.00
55079;BME280;55187;49.496;6.010;2022-08-01T01:16:37;97623.34;;;14.74;100.00
55079;BME280;55187;49.496;6.010;2022-08-01T01:19:10;97616.00;;;14.62;100.00
55079;BME280;55187;49.496;6.010;2022-08-01T01:22:17;97614.38;;;14.61;100.00
55079;BME280;55187;49.496;6.010;2022-08-01T01:25:08;97614.09;;;14.76;100.00
55079;BME280;55187;49.496;6.010;2022-08-01T01:27:57;97612.19;;;14.90;100.00
55079;BME280;55187;49.496;6.010;2022-08-01T01:30:28;97616.75;;;15.15;100.00
55079;BME280;55187;49.496;6.010;2022-08-01T01:32:59;97606.16;;;15.01;100.00
55079;BME280;55187;49.496;6.010;2022-08-01T01:35:31;97614.97;;;15.34;100.00
55079;BME280;55187;49.496;6.010;2022-08-01T01:38:10;97599.56;;;15.10;100.00
55079;BME280;55187;49.496;6.010;2022-08-01T01:40:39;97613.69;;;15.11;100.00
55079;BME280;55187;49.496;6.010;2022-08-01T01:43:10;97618.41;;;15.09;100.00
55079;BME280;55187;49.496;6.010;2022-08-01T01:45:36;97612.91;;;15.04;100.00
55079;BME280;55187;49.496;6.010;2022-08-01T01:48:04;97614.75;;;15.35;99.72
55079;BME280;55187;49.496;6.010;2022-08-01T01:50:32;97607.63;;;15.29;99.41
55079;BME280;55187;49.496;6.010;2022-08-01T01:52:59;97613.03;;;15.16;100.00
55079;BME280;55187;49.496;6.010;2022-08-01T01:55:28;97603.03;;;15.11;100.00
55079;BME280;55187;49.496;6.010;2022-08-01T01:57:55;97610.13;;;14.92;100.00
55079;BME280;55187;49.496;6.010;2022-08-01T02:00:23;97611.59;;;14.81;100.00
55079;BME280;55187;49.496;6.010;2022-08-01T02:02:52;97613.56;;;14.61;100.00
55079;BME280;55187;49.496;6.010;2022-08-01T02:05:20;97613.59;;;14.54;100.00
55079;BME280;55187;49.496;6.010;2022-08-01T02:07:48;97612.81;;;14.40;100.00
55079;BME280;55187;49.496;6.010;2022-08-01T02:10:16;97614.44;;;14.35;100.00
55079;BME280;55187;49.496;6.010;2022-08-01T02:12:45;97606.91;;;14.25;100.00
55079;BME280;55187;49.496;6.010;2022-08-01T02:15:12;97610.41;;;14.19;100.00
55079;BME280;55187;49.496;6.010;2022-08-01T02:17:45;97609.78;;;14.17;100.00
55079;BME280;55187;49.496;6.010;2022-08-01T02:20:13;97605.72;;;14.14;100.00
55079;BME280;55187;49.496;6.010;2022-08-01T02:22:53;97601.81;;;14.17;100.00
55079;BME280;55187;49.496;6.010;2022-08-01T02:25:36;97606.34;;;14.03;100.00
55079;BME280;55187;49.496;6.010;2022-08-01T02:28:17;97607.19;;;14.03;100.00
55079;BME280;55187;49.496;6.010;2022-08-01T02:30:49;97598.59;;;13.95;100.00
55079;BME280;55187;49.496;6.010;2022-08-01T02:33:22;97602.69;;;13.97;100.00
55079;BME280;55187;49.496;6.010;2022-08-01T02:35:52;97604.72;;;14.09;100.00
55079;BME280;55187;49.496;6.010;2022-08-01T02:38:25;97602.06;;;14.02;100.00
55079;BME280;55187;49.496;6.010;2022-08-01T02:40:55;97604.13;;;13.93;100.00
55079;BME280;55187;49.496;6.010;2022-08-01T02:43:26;97606.59;;;13.81;100.00
55079;BME280;55187;49.496;6.010;2022-08-01T02:45:58;97601.06;;;13.90;100.00
55079;BME280;55187;49.496;6.010;2022-08-01T02:48:26;97604.75;;;13.82;100.00
55079;BME280;55187;49.496;6.010;2022-08-01T02:50:58;97595.72;;;13.96;100.00
55079;BME280;55187;49.496;6.010;2022-08-01T02:53:27;97606.19;;;13.84;100.00
55079;BME280;55187;49.496;6.010;2022-08-01T02:55:58;97601.72;;;13.78;100.00
55079;BME280;55187;49.496;6.010;2022-08-01T02:58:25;97601.72;;;13.72;100.00
55079;BME280;55187;49.496;6.010;2022-08-01T03:00:53;97592.94;;;13.64;100.00
55079;BME280;55187;49.496;6.010;2022-08-01T03:03:20;97595.97;;;13.61;100.00
55079;BME280;55187;49.496;6.010;2022-08-01T03:05:47;97591.69;;;13.54;100.00
55079;BME280;55187;49.496;6.010;2022-08-01T03:08:15;97599.47;;;13.49;100.00
55079;BME280;55187;49.496;6.010;2022-08-01T03:10:44;97597.63;;;13.49;100.00
55079;BME280;55187;49.496;6.010;2022-08-01T03:13:13;97592.50;;;13.54;100.00
55079;BME280;55187;49.496;6.010;2022-08-01T03:15:41;97578.59;;;13.66;100.00
55079;BME280;55187;49.496;6.010;2022-08-01T03:18:09;97587.63;;;13.51;100.00
55079;BME280;55187;49.496;6.010;2022-08-01T03:20:38;97580.88;;;13.49;100.00
55079;BME280;55187;49.496;6.010;2022-08-01T03:23:07;97578.63;;;13.39;100.00
55079;BME280;55187;49.496;6.010;2022-08-01T03:25:39;97582.72;;;13.48;100.00
55079;BME280;55187;49.496;6.010;2022-08-01T03:28:08;97582.09;;;13.46;100.00
55079;BME280;55187;49.496;6.010;2022-08-01T03:30:39;97583.09;;;13.45;100.00
55079;BME280;55187;49.496;6.010;2022-08-01T03:33:06;97583.53;;;13.29;100.00
55079;BME280;55187;49.496;6.010;2022-08-01T03:35:34;97588.03;;;13.35;100.00
55079;BME280;55187;49.496;6.010;2022-08-01T03:38:03;97592.88;;;13.25;100.00
55079;BME280;55187;49.496;6.010;2022-08-01T03:40:37;97596.38;;;13.25;100.00
55079;BME280;55187;49.496;6.010;2022-08-01T03:43:15;97597.78;;;13.14;100.00
55079;BME280;55187;49.496;6.010;2022-08-01T03:45:46;97591.47;;;13.22;100.00
55079;BME280;55187;49.496;6.010;2022-08-01T03:48:18;97595.13;;;13.14;100.00
55079;BME280;55187;49.496;6.010;2022-08-01T03:50:50;97595.34;;;13.13;100.00
55079;BME280;55187;49.496;6.010;2022-08-01T03:53:20;97590.66;;;13.21;100.00
55079;BME280;55187;49.496;6.010;2022-08-01T03:55:49;97595.75;;;13.16;100.00
55079;BME280;55187;49.496;6.010;2022-08-01T03:58:16;97597.38;;;13.17;100.00
55079;BME280;55187;49.496;6.010;2022-08-01T04:00:43;97596.75;;;13.09;100.00
55079;BME280;55187;49.496;6.010;2022-08-01T04:03:11;97597.59;;;13.16;100.00
55079;BME280;55187;49.496;6.010;2022-08-01T04:05:42;97590.81;;;13.07;100.00
55079;BME280;55187;49.496;6.010;2022-08-01T04:08:08;97596.16;;;13.00;100.00
55079;BME280;55187;49.496;6.010;2022-08-01T04:10:35;97602.88;;;12.96;100.00
55079;BME280;55187;49.496;6.010;2022-08-01T04:13:02;97603.28;;;12.99;100.00
55079;BME280;55187;49.496;6.010;2022-08-01T04:15:29;97600.63;;;12.99;100.00
55079;BME280;55187;49.496;6.010;2022-08-01T04:17:55;97598.81;;;13.00;100.00
55079;BME280;55187;49.496;6.010;2022-08-01T04:20:21;97605.53;;;12.96;100.00
55079;BME280;55187;49.496;6.010;2022-08-01T04:22:48;97607.78;;;13.06;100.00
55079;BME280;55187;49.496;6.010;2022-08-01T04:25:26;97607.63;;;13.14;100.00
55079;BME280;55187;49.496;6.010;2022-08-01T04:27:54;97609.22;;;13.08;100.00
55079;BME280;55187;49.496;6.010;2022-08-01T04:30:27;97608.22;;;13.16;100.00
55079;BME280;55187;49.496;6.010;2022-08-01T04:32:57;97610.88;;;13.16;100.00
55079;BME280;55187;49.496;6.010;2022-08-01T04:35:26;97615.59;;;13.20;100.00
55079;BME280;55187;49.496;6.010;2022-08-01T04:37:55;97607.19;;;13.17;100.00
55079;BME280;55187;49.496;6.010;2022-08-01T04:40:22;97611.50;;;13.25;100.00
55079;BME280;55187;49.496;6.010;2022-08-01T04:42:49;97626.22;;;13.20;100.00
55079;BME280;55187;49.496;6.010;2022-08-01T04:45:16;97620.06;;;13.27;100.00
55079;BME280;55187;49.496;6.010;2022-08-01T04:47:44;97629.94;;;13.33;100.00
55079;BME280;55187;49.496;6.010;2022-08-01T04:50:11;97626.84;;;13.29;100.00
55079;BME280;55187;49.496;6.010;2022-08-01T04:52:38;97622.78;;;13.40;100.00
55079;BME280;55187;49.496;6.010;2022-08-01T04:55:05;97620.94;;;13.40;100.00
55079;BME280;55187;49.496;6.010;2022-08-01T04:57:36;97640.38;;;13.54;100.00
55079;BME280;55187;49.496;6.010;2022-08-01T05:00:04;97637.09;;;13.52;100.00
55079;BME280;55187;49.496;6.010;2022-08-01T05:02:30;97638.94;;;13.58;100.00
55079;BME280;55187;49.496;6.010;2022-08-01T05:04:57;97637.91;;;13.79;100.00
55079;BME280;55187;49.496;6.010;2022-08-01T05:07:23;97639.13;;;13.90;100.00
55079;BME280;55187;49.496;6.010;2022-08-01T05:09:50;97637.41;;;14.29;100.00
55079;BME280;55187;49.496;6.010;2022-08-01T05:12:18;97639.81;;;14.44;100.00
55079;BME280;55187;49.496;6.010;2022-08-01T05:14:44;97645.47;;;14.67;100.00
55079;BME280;55187;49.496;6.010;2022-08-01T05:17:12;97644.56;;;14.94;100.00
55079;BME280;55187;49.496;6.010;2022-08-01T05:19:39;97645.88;;;15.16;100.00
55079;BME280;55187;49.496;6.010;2022-08-01T05:22:08;97647.13;;;15.39;100.00
55079;BME280;55187;49.496;6.010;2022-08-01T05:24:37;97643.28;;;15.60;100.00
55079;BME280;55187;49.496;6.010;2022-08-01T05:27:05;97651.00;;;15.75;100.00
55079;BME280;55187;49.496;6.010;2022-08-01T05:29:32;97658.59;;;15.96;100.00
55079;BME280;55187;49.496;6.010;2022-08-01T05:31:59;97660.56;;;16.07;98.95
55079;BME280;55187;49.496;6.010;2022-08-01T05:34:25;97661.63;;;16.25;97.81
55079;BME280;55187;49.496;6.010;2022-08-01T05:36:52;97659.59;;;16.02;98.07
55079;BME280;55187;49.496;6.010;2022-08-01T05:39:19;97659.09;;;16.11;98.67
55079;BME280;55187;49.496;6.010;2022-08-01T05:41:45;97657.22;;;16.12;98.24
55079;BME280;55187;49.496;6.010;2022-08-01T05:44:12;97660.44;;;16.39;96.33
55079;BME280;55187;49.496;6.010;2022-08-01T05:46:38;97659.69;;;16.32;95.46
55079;BME280;55187;49.496;6.010;2022-08-01T05:49:05;97654.81;;;16.47;94.95
55079;BME280;55187;49.496;6.010;2022-08-01T05:51:31;97668.00;;;16.42;95.45
55079;BME280;55187;49.496;6.010;2022-08-01T05:53:58;97663.56;;;16.36;95.63
55079;BME280;55187;49.496;6.010;2022-08-01T05:56:24;97660.81;;;16.43;95.73
55079;BME280;55187;49.496;6.010;2022-08-01T05:58:51;97666.84;;;16.56;95.19
55079;BME280;55187;49.496;6.010;2022-08-01T06:01:18;97662.81;;;16.66;94.39
55079;BME280;55187;49.496;6.010;2022-08-01T06:03:45;97665.97;;;16.74;93.28
55079;BME280;55187;49.496;6.010;2022-08-01T06:06:12;97664.31;;;16.80;93.63
55079;BME280;55187;49.496;6.010;2022-08-01T06:08:40;97665.94;;;16.81;94.08
55079;BME280;55187;49.496;6.010;2022-08-01T06:11:07;97663.09;;;16.94;92.29
55079;BME280;55187;49.496;6.010;2022-08-01T06:13:33;97668.66;;;16.93;92.09
55079;BME280;55187;49.496;6.010;2022-08-01T06:16:00;97669.84;;;16.97;91.65
55079;BME280;55187;49.496;6.010;2022-08-01T06:18:26;97681.09;;;17.17;90.60
55079;BME280;55187;49.496;6.010;2022-08-01T06:20:52;97670.22;;;17.31;90.41
55079;BME280;55187;49.496;6.010;2022-08-01T06:23:20;97666.63;;;17.07;90.79
55079;BME280;55187;49.496;6.010;2022-08-01T06:25:47;97662.00;;;17.44;89.79
55079;BME280;55187;49.496;6.010;2022-08-01T06:28:13;97655.78;;;17.74;87.86
55079;BME280;55187;49.496;6.010;2022-08-01T06:30:40;97659.41;;;18.15;85.58
55079;BME280;55187;49.496;6.010;2022-08-01T06:33:06;97658.56;;;18.38;84.33
55079;BME280;55187;49.496;6.010;2022-08-01T06:35:33;97660.34;;;18.20;85.03
55079;BME280;55187;49.496;6.010;2022-08-01T06:37:59;97652.06;;;18.22;84.19
55079;BME280;55187;49.496;6.010;2022-08-01T06:40:25;97657.75;;;18.37;83.48
55079;BME280;55187;49.496;6.010;2022-08-01T06:42:52;97651.69;;;18.42;83.45
55079;BME280;55187;49.496;6.010;2022-08-01T06:45:18;97651.13;;;18.92;81.06
55079;BME280;55187;49.496;6.010;2022-08-01T06:47:48;97650.75;;;19.00;80.52
55079;BME280;55187;49.496;6.010;2022-08-01T06:50:15;97648.84;;;19.29;79.10
55079;BME280;55187;49.496;6.010;2022-08-01T06:52:41;97656.78;;;18.67;81.23
55079;BME280;55187;49.496;6.010;2022-08-01T06:55:08;97649.72;;;19.18;79.66
55079;BME280;55187;49.496;6.010;2022-08-01T06:57:34;97650.03;;;19.50;79.07
55079;BME280;55187;49.496;6.010;2022-08-01T07:00:06;97645.03;;;19.25;78.45
55079;BME280;55187;49.496;6.010;2022-08-01T07:02:35;97652.69;;;18.64;80.51
55079;BME280;55187;49.496;6.010;2022-08-01T07:05:03;97657.84;;;18.78;81.04
55079;BME280;55187;49.496;6.010;2022-08-01T07:07:31;97664.94;;;18.60;81.21
55079;BME280;55187;49.496;6.010;2022-08-01T07:09:57;97666.59;;;18.38;82.04
55079;BME280;55187;49.496;6.010;2022-08-01T07:12:23;97659.50;;;18.43;81.56
55079;BME280;55187;49.496;6.010;2022-08-01T07:14:50;97661.59;;;18.53;82.98
55079;BME280;55187;49.496;6.010;2022-08-01T07:17:16;97668.06;;;18.81;81.02
55079;BME280;55187;49.496;6.010;2022-08-01T07:19:42;97662.47;;;18.82;80.79
55079;BME280;55187;49.496;6.010;2022-08-01T07:22:08;97662.22;;;18.84;81.25
55079;BME280;55187;49.496;6.010;2022-08-01T07:24:35;97670.25;;;18.96;81.31
55079;BME280;55187;49.496;6.010;2022-08-01T07:27:01;97668.78;;;19.17;79.46
55079;BME280;55187;49.496;6.010;2022-08-01T07:29:28;97674.66;;;19.02;79.79
55079;BME280;55187;49.496;6.010;2022-08-01T07:31:56;97656.34;;;19.27;80.10
55079;BME280;55187;49.496;6.010;2022-08-01T07:34:23;97664.84;;;19.07;80.37
55079;BME280;55187;49.496;6.010;2022-08-01T07:36:51;97673.06;;;19.18;78.59
55079;BME280;55187;49.496;6.010;2022-08-01T07:39:18;97668.88;;;19.39;77.75
55079;BME280;55187;49.496;6.010;2022-08-01T07:41:44;97668.31;;;19.37;78.33
55079;BME280;55187;49.496;6.010;2022-08-01T07:44:11;97672.38;;;19.39;78.00
55079;BME280;55187;49.496;6.010;2022-08-01T07:46:37;97667.25;;;19.38;77.70
55079;BME280;55187;49.496;6.010;2022-08-01T07:49:04;97669.06;;;19.49;76.66
55079;BME280;55187;49.496;6.010;2022-08-01T07:51:30;97666.53;;;19.59;77.40
55079;BME280;55187;49.496;6.010;2022-08-01T07:53:57;97672.56;;;19.66;76.45
55079;BME280;55187;49.496;6.010;2022-08-01T07:56:23;97670.72;;;19.67;77.01
55079;BME280;55187;49.496;6.010;2022-08-01T07:58:52;97672.84;;;19.82;76.66
55079;BME280;55187;49.496;6.010;2022-08-01T08:01:18;97675.69;;;19.92;74.74
55079;BME280;55187;49.496;6.010;2022-08-01T08:03:45;97669.44;;;19.24;77.06
55079;BME280;55187;49.496;6.010;2022-08-01T08:06:12;97667.00;;;18.70;78.40
55079;BME280;55187;49.496;6.010;2022-08-01T08:08:38;97674.25;;;18.81;79.55
55079;BME280;55187;49.496;6.010;2022-08-01T08:11:05;97677.72;;;18.94;78.08
55079;BME280;55187;49.496;6.010;2022-08-01T08:13:31;97676.63;;;19.35;76.17
55079;BME280;55187;49.496;6.010;2022-08-01T08:15:58;97679.22;;;19.93;74.45
55079;BME280;55187;49.496;6.010;2022-08-01T08:18:26;97680.44;;;20.58;71.87
55079;BME280;55187;49.496;6.010;2022-08-01T08:20:52;97687.03;;;21.16;71.06
55079;BME280;55187;49.496;6.010;2022-08-01T08:23:19;97679.44;;;20.64;72.52
55079;BME280;55187;49.496;6.010;2022-08-01T08:25:57;97685.34;;;20.44;72.83
55079;BME280;55187;49.496;6.010;2022-08-01T08:28:24;97679.78;;;19.95;74.43
55079;BME280;55187;49.496;6.010;2022-08-01T08:30:51;97682.84;;;20.03;73.50
55079;BME280;55187;49.496;6.010;2022-08-01T08:33:19;97679.59;;;20.18;72.59
55079;BME280;55187;49.496;6.010;2022-08-01T08:35:45;97681.63;;;20.28;73.07
55079;BME280;55187;49.496;6.010;2022-08-01T08:38:11;97689.06;;;20.43;71.60
55079;BME280;55187;49.496;6.010;2022-08-01T08:40:38;97692.00;;;21.02;71.02
55079;BME280;55187;49.496;6.010;2022-08-01T08:43:05;97688.66;;;20.51;71.52
55079;BME280;55187;49.496;6.010;2022-08-01T08:45:33;97684.13;;;20.95;70.30
55079;BME280;55187;49.496;6.010;2022-08-01T08:48:00;97693.13;;;20.62;72.48
55079;BME280;55187;49.496;6.010;2022-08-01T08:50:27;97695.25;;;20.60;71.35
55079;BME280;55187;49.496;6.010;2022-08-01T08:52:54;97695.06;;;19.94;71.66
55079;BME280;55187;49.496;6.010;2022-08-01T08:55:22;97695.19;;;19.54;75.01
55079;BME280;55187;49.496;6.010;2022-08-01T08:57:49;97683.44;;;19.43;76.07
55079;BME280;55187;49.496;6.010;2022-08-01T09:00:16;97684.56;;;19.30;75.29
55079;BME280;55187;49.496;6.010;2022-08-01T09:02:45;97695.78;;;19.56;74.84
55079;BME280;55187;49.496;6.010;2022-08-01T09:05:13;97697.84;;;19.82;74.40
55079;BME280;55187;49.496;6.010;2022-08-01T09:07:39;97698.50;;;19.89;73.12
55079;BME280;55187;49.496;6.010;2022-08-01T09:10:07;97695.06;;;19.77;72.98
55079;BME280;55187;49.496;6.010;2022-08-01T09:12:33;97693.69;;;19.75;73.58
55079;BME280;55187;49.496;6.010;2022-08-01T09:14:59;97693.09;;;19.56;73.33
55079;BME280;55187;49.496;6.010;2022-08-01T09:17:26;97697.28;;;20.14;72.46
55079;BME280;55187;49.496;6.010;2022-08-01T09:19:54;97702.59;;;20.48;71.69
55079;BME280;55187;49.496;6.010;2022-08-01T09:22:23;97700.13;;;20.63;71.33
55079;BME280;55187;49.496;6.010;2022-08-01T09:25:10;97704.75;;;20.12;73.20
55079;BME280;55187;49.496;6.010;2022-08-01T09:27:38;97706.81;;;20.05;73.89
55079;BME280;55187;49.496;6.010;2022-08-01T09:30:16;97704.06;;;19.54;75.20
55079;BME280;55187;49.496;6.010;2022-08-01T09:32:59;97706.31;;;19.62;76.14
55079;BME280;55187;49.496;6.010;2022-08-01T09:35:31;97713.56;;;19.90;73.79
55079;BME280;55187;49.496;6.010;2022-08-01T09:38:13;97706.53;;;20.23;73.87
55079;BME280;55187;49.496;6.010;2022-08-01T09:40:58;97708.66;;;20.21;74.19
55079;BME280;55187;49.496;6.010;2022-08-01T09:43:28;97704.03;;;20.17;72.60
55079;BME280;55187;49.496;6.010;2022-08-01T09:45:56;97707.63;;;19.88;72.13
55079;BME280;55187;49.496;6.010;2022-08-01T09:48:23;97714.84;;;20.05;73.25
55079;BME280;55187;49.496;6.010;2022-08-01T09:50:53;97710.50;;;20.38;71.59
55079;BME280;55187;49.496;6.010;2022-08-01T09:53:19;97715.16;;;20.59;70.16
55079;BME280;55187;49.496;6.010;2022-08-01T09:55:46;97720.41;;;20.54;71.56
55079;BME280;55187;49.496;6.010;2022-08-01T09:58:12;97717.25;;;20.40;71.63
55079;BME280;55187;49.496;6.010;2022-08-01T10:00:39;97715.41;;;20.58;70.90
55079;BME280;55187;49.496;6.010;2022-08-01T10:03:21;97717.59;;;20.44;71.19
55079;BME280;55187;49.496;6.010;2022-08-01T10:05:48;97717.16;;;20.69;71.65
55079;BME280;55187;49.496;6.010;2022-08-01T10:08:17;97720.84;;;20.29;71.81
55079;BME280;55187;49.496;6.010;2022-08-01T10:13:35;97714.56;;;20.96;70.59
55079;BME280;55187;49.496;6.010;2022-08-01T10:16:02;97719.72;;;20.81;70.87
55079;BME280;55187;49.496;6.010;2022-08-01T10:18:31;97708.59;;;20.55;72.37
55079;BME280;55187;49.496;6.010;2022-08-01T10:21:00;97703.69;;;20.91;71.14
55079;BME280;55187;49.496;6.010;2022-08-01T10:23:33;97701.91;;;20.97;71.09
55079;BME280;55187;49.496;6.010;2022-08-01T10:26:01;97704.84;;;21.17;70.26
55079;BME280;55187;49.496;6.010;2022-08-01T10:28:31;97704.38;;;21.25;68.96
55079;BME280;55187;49.496;6.010;2022-08-01T10:30:58;97702.44;;;21.70;67.76
55079;BME280;55187;49.496;6.010;2022-08-01T10:33:25;97699.59;;;21.32;67.22
55079;BME280;55187;49.496;6.010;2022-08-01T10:35:51;97707.94;;;21.85;67.81
55079;BME280;55187;49.496;6.010;2022-08-01T10:38:18;97715.63;;;21.71;66.30
55079;BME280;55187;49.496;6.010;2022-08-01T10:40:45;97708.25;;;21.62;65.22
55079;BME280;55187;49.496;6.010;2022-08-01T10:43:12;97710.00;;;21.46;66.71
55079;BME280;55187;49.496;6.010;2022-08-01T10:45:42;97700.72;;;21.36;65.60
55079;BME280;55187;49.496;6.010;2022-08-01T10:48:14;97714.56;;;21.23;67.55
55079;BME280;55187;49.496;6.010;2022-08-01T10:50:46;97703.75;;;21.40;67.09
55079;BME280;55187;49.496;6.010;2022-08-01T10:53:18;97702.34;;;21.10;67.72
55079;BME280;55187;49.496;6.010;2022-08-01T10:55:52;97709.41;;;21.16;67.37
55079;BME280;55187;49.496;6.010;2022-08-01T10:58:27;97707.66;;;21.05;67.39
55079;BME280;55187;49.496;6.010;2022-08-01T11:01:14;97708.00;;;20.70;69.68
55079;BME280;55187;49.496;6.010;2022-08-01T11:04:05;97718.00;;;20.36;70.41
55079;BME280;55187;49.496;6.010;2022-08-01T11:07:03;97706.97;;;20.71;70.03
55079;BME280;55187;49.496;6.010;2022-08-01T11:09:45;97711.66;;;20.81;69.04
55079;BME280;55187;49.496;6.010;2022-08-01T11:12:18;97719.69;;;20.59;70.58
55079;BME280;55187;49.496;6.010;2022-08-01T11:17:51;97720.47;;;20.03;71.59
55079;BME280;55187;49.496;6.010;2022-08-01T11:20:23;97716.88;;;20.15;71.98
55079;BME280;55187;49.496;6.010;2022-08-01T11:23:14;97722.25;;;20.15;72.93
55079;BME280;55187;49.496;6.010;2022-08-01T11:26:06;97718.91;;;20.24;71.79
55079;BME280;55187;49.496;6.010;2022-08-01T11:28:32;97720.56;;;20.08;72.75
55079;BME280;55187;49.496;6.010;2022-08-01T11:33:55;97721.22;;;20.16;72.96
55079;BME280;55187;49.496;6.010;2022-08-01T11:36:21;97717.31;;;20.06;74.41
55079;BME280;55187;49.496;6.010;2022-08-01T11:39:10;97715.75;;;20.27;71.18
55079;BME280;55187;49.496;6.010;2022-08-01T11:41:37;97709.47;;;20.39;71.71
55079;BME280;55187;49.496;6.010;2022-08-01T11:44:10;97713.84;;;20.45;70.81
55079;BME280;55187;49.496;6.010;2022-08-01T11:49:44;97708.59;;;20.55;70.58
55079;BME280;55187;49.496;6.010;2022-08-01T11:52:15;97706.63;;;20.67;69.62
55079;BME280;55187;49.496;6.010;2022-08-01T11:54:51;97709.53;;;20.83;68.55
55079;BME280;55187;49.496;6.010;2022-08-01T11:59:54;97704.72;;;20.85;69.81
55079;BME280;55187;49.496;6.010;2022-08-01T12:02:23;97707.84;;;20.99;69.36
55079;BME280;55187;49.496;6.010;2022-08-01T12:04:55;97708.34;;;20.95;68.57
55079;BME280;55187;49.496;6.010;2022-08-01T12:07:23;97701.75;;;21.08;68.23
55079;BME280;55187;49.496;6.010;2022-08-01T12:09:57;97705.91;;;20.72;68.45
55079;BME280;55187;49.496;6.010;2022-08-01T12:12:27;97704.53;;;20.69;68.12
55079;BME280;55187;49.496;6.010;2022-08-01T12:14:56;97700.97;;;21.08;67.86
55079;BME280;55187;49.496;6.010;2022-08-01T12:17:40;97700.44;;;21.33;68.38
55079;BME280;55187;49.496;6.010;2022-08-01T12:20:10;97703.59;;;21.30;68.17
55079;BME280;55187;49.496;6.010;2022-08-01T12:22:36;97700.50;;;21.16;67.94
55079;BME280;55187;49.496;6.010;2022-08-01T12:25:16;97706.63;;;21.33;68.93
55079;BME280;55187;49.496;6.010;2022-08-01T12:27:45;97707.19;;;21.13;67.74
55079;BME280;55187;49.496;6.010;2022-08-01T12:30:22;97706.72;;;20.94;67.51
55079;BME280;55187;49.496;6.010;2022-08-01T12:32:50;97707.63;;;21.27;67.59
55079;BME280;55187;49.496;6.010;2022-08-01T12:35:18;97704.59;;;20.97;69.66
55079;BME280;55187;49.496;6.010;2022-08-01T12:37:55;97698.38;;;21.18;66.32
55079;BME280;55187;49.496;6.010;2022-08-01T12:40:31;97693.91;;;20.41;68.26
55079;BME280;55187;49.496;6.010;2022-08-01T12:43:04;97696.16;;;21.10;67.01
55079;BME280;55187;49.496;6.010;2022-08-01T12:45:40;97687.09;;;21.43;67.47
55079;BME280;55187;49.496;6.010;2022-08-01T12:48:11;97687.81;;;21.61;66.69
55079;BME280;55187;49.496;6.010;2022-08-01T12:50:39;97691.84;;;21.63;66.91
55079;BME280;55187;49.496;6.010;2022-08-01T12:53:08;97688.00;;;21.86;66.37
55079;BME280;55187;49.496;6.010;2022-08-01T12:58:11;97690.34;;;21.77;66.32
55079;BME280;55187;49.496;6.010;2022-08-01T13:00:39;97698.28;;;21.89;65.37
55079;BME280;55187;49.496;6.010;2022-08-01T13:03:08;97691.88;;;22.00;66.30
55079;BME280;55187;49.496;6.010;2022-08-01T13:05:41;97691.97;;;22.48;65.32
55079;BME280;55187;49.496;6.010;2022-08-01T13:08:11;97690.56;;;22.03;64.95
55079;BME280;55187;49.496;6.010;2022-08-01T13:10:38;97688.66;;;22.36;66.00
55079;BME280;55187;49.496;6.010;2022-08-01T13:13:06;97687.94;;;22.51;65.64
55079;BME280;55187;49.496;6.010;2022-08-01T13:15:35;97687.56;;;22.85;64.31
55079;BME280;55187;49.496;6.010;2022-08-01T13:18:24;97679.13;;;22.71;63.49
55079;BME280;55187;49.496;6.010;2022-08-01T13:24:03;97696.00;;;22.46;63.56
55079;BME280;55187;49.496;6.010;2022-08-01T13:26:37;97693.31;;;22.46;65.14
55079;BME280;55187;49.496;6.010;2022-08-01T13:29:05;97687.59;;;22.42;64.63
55079;BME280;55187;49.496;6.010;2022-08-01T13:31:32;97699.72;;;22.39;65.01
55079;BME280;55187;49.496;6.010;2022-08-01T13:33:59;97694.38;;;21.75;67.03